createdAt,value
2019-06-15T00:00:56.866Z,152510.41
2019-06-15T00:03:25.298Z,152524.48
2019-06-15T00:05:53.731Z,152523.22
2019-06-15T00:08:22.202Z,152533.41
2019-06-15T00:10:50.664Z,152534.72
2019-06-15T00:13:19.067Z,152543.64
2019-06-15T00:15:47.479Z,152552.61
2019-06-15T00:18:15.921Z,152564.13
2019-06-15T00:20:44.321Z,152567.97
2019-06-15T00:23:12.763Z,152594.84
2019-06-15T00:25:41.182Z,152622.98
2019-06-15T00:28:09.586Z,152630.69
2019-06-15T00:30:38.013Z,152630.69
2019-06-15T00:33:06.580Z,152628.09
2019-06-15T00:35:35.014Z,152620.44
2019-06-15T00:38:03.427Z,152625.56
2019-06-15T00:40:31.850Z,152625.56
2019-06-15T00:43:00.301Z,152630.69
2019-06-15T00:45:28.743Z,152630.69
2019-06-15T00:47:57.184Z,152617.86
2019-06-15T00:50:25.605Z,152620.44
2019-06-15T00:52:54.043Z,152616.59
2019-06-15T00:55:22.467Z,152614.06
2019-06-15T00:57:50.908Z,152620.44
2019-06-15T01:00:19.675Z,152620.44
2019-06-15T01:02:48.138Z,152633.27
2019-06-15T01:05:17.208Z,152652.48
2019-06-15T01:07:45.640Z,152656.30
2019-06-15T01:10:15.507Z,152671.66
2019-06-15T01:12:43.932Z,152662.72
2019-06-15T01:15:13.189Z,152665.27
2019-06-15T01:17:41.704Z,152648.63
2019-06-15T01:20:11.184Z,152646.09
2019-06-15T01:22:39.586Z,152634.53
2019-06-15T01:25:10.063Z,152628.09
2019-06-15T01:27:39.910Z,152624.25
2019-06-15T01:30:13.257Z,152615.33
2019-06-15T01:32:41.661Z,152599.97
2019-06-15T01:35:10.345Z,152598.69
2019-06-15T01:37:38.938Z,152579.48
2019-06-15T01:40:08.611Z,152582.06
2019-06-15T01:42:37.097Z,152569.25
2019-06-15T01:45:09.120Z,152562.86
2019-06-15T01:47:37.558Z,152547.50
2019-06-15T01:50:06.405Z,152529.59
2019-06-15T01:52:34.913Z,152518.09
2019-06-15T01:55:04.491Z,152514.25
2019-06-15T01:57:32.909Z,152507.86
2019-06-15T02:00:01.394Z,152497.63
2019-06-15T02:02:29.795Z,152479.69
2019-06-15T02:04:58.222Z,152468.19
2019-06-15T02:07:26.651Z,152459.25
2019-06-15T02:09:55.084Z,152456.67
2019-06-15T02:12:23.532Z,152456.67
2019-06-15T02:14:51.958Z,152465.64
2019-06-15T02:17:20.469Z,152463.06
2019-06-15T02:19:48.973Z,152461.80
2019-06-15T02:22:17.387Z,152464.37
2019-06-15T02:24:45.810Z,152456.67
2019-06-15T02:27:14.231Z,152454.14
2019-06-15T02:29:42.660Z,152459.25
2019-06-15T02:32:11.087Z,152473.30
2019-06-15T02:34:39.524Z,152477.14
2019-06-15T02:37:07.963Z,152470.77
2019-06-15T02:39:36.403Z,152456.67
2019-06-15T02:42:05.102Z,152429.81
2019-06-15T02:44:33.534Z,152422.12
2019-06-15T02:47:01.985Z,152413.16
2019-06-15T02:49:30.379Z,152405.50
2019-06-15T02:51:58.969Z,152399.06
2019-06-15T02:54:27.382Z,152413.16
2019-06-15T02:56:55.793Z,152428.50
2019-06-15T02:59:24.239Z,152437.52
2019-06-15T03:01:52.750Z,152440.06
2019-06-15T03:04:21.525Z,152450.28
2019-06-15T03:06:50.129Z,152461.80
2019-06-15T03:09:18.546Z,152464.37
2019-06-15T03:11:47.035Z,152440.06
2019-06-15T03:14:16.059Z,152443.91
2019-06-15T03:16:44.471Z,152449.03
2019-06-15T03:19:12.892Z,152443.91
2019-06-15T03:21:41.317Z,152420.80
2019-06-15T03:24:09.726Z,152411.88
2019-06-15T03:26:38.186Z,152415.69
2019-06-15T03:29:06.669Z,152418.27
2019-06-15T03:31:35.100Z,152417.00
2019-06-15T03:34:03.567Z,152418.27
2019-06-15T03:36:31.990Z,152413.16
2019-06-15T03:39:00.427Z,152446.44
2019-06-15T03:41:28.899Z,152438.78
2019-06-15T03:43:57.328Z,152432.41
2019-06-15T03:46:25.751Z,152427.23
2019-06-15T03:48:55.050Z,152422.12
2019-06-15T03:51:23.481Z,152428.50
2019-06-15T03:53:51.913Z,152438.78
2019-06-15T03:56:21.905Z,152438.78
2019-06-15T03:58:50.503Z,152454.14
2019-06-15T04:01:31.027Z,152454.14
2019-06-15T04:03:59.447Z,152469.50
2019-06-15T04:06:27.882Z,152474.56
2019-06-15T04:08:56.281Z,152481.00
2019-06-15T04:11:24.786Z,152481.00
2019-06-15T04:13:53.221Z,152477.14
2019-06-15T04:16:21.647Z,152483.53
2019-06-15T04:18:50.090Z,152482.27
2019-06-15T04:21:18.529Z,152482.27
2019-06-15T04:23:46.954Z,152474.56
2019-06-15T04:26:15.397Z,152473.30
2019-06-15T04:28:43.827Z,152474.56
2019-06-15T04:31:12.274Z,152478.41
2019-06-15T04:33:40.699Z,152474.56
2019-06-15T04:36:09.180Z,152484.80
2019-06-15T04:38:37.614Z,152493.78
2019-06-15T04:41:06.173Z,152515.52
2019-06-15T04:43:36.617Z,152520.62
2019-06-15T04:46:05.295Z,152516.78
2019-06-15T04:48:33.807Z,152518.09
2019-06-15T04:51:02.214Z,152535.98
2019-06-15T04:53:30.674Z,152528.34
2019-06-15T04:55:59.084Z,152539.84
2019-06-15T04:58:27.521Z,152538.53
2019-06-15T05:00:55.936Z,152547.50
2019-06-15T05:03:24.351Z,152521.91
2019-06-15T05:05:53.328Z,152539.84
2019-06-15T05:08:21.755Z,152533.41
2019-06-15T05:10:50.254Z,152529.59
2019-06-15T05:13:18.737Z,152532.14
2019-06-15T05:15:48.533Z,152535.98
2019-06-15T05:18:19.462Z,152530.88
2019-06-15T05:20:48.066Z,152520.62
2019-06-15T05:23:16.493Z,152512.98
2019-06-15T05:25:44.986Z,152511.66
2019-06-15T05:28:13.416Z,152505.28
2019-06-15T05:30:41.848Z,152481.00
2019-06-15T05:33:10.782Z,152470.77
2019-06-15T05:35:39.191Z,152465.64
2019-06-15T05:38:07.687Z,152463.06
2019-06-15T05:40:36.104Z,152459.25
2019-06-15T05:43:04.609Z,152461.80
2019-06-15T05:45:33.055Z,152463.06
2019-06-15T05:48:03.140Z,152461.80
2019-06-15T05:50:31.553Z,152445.17
2019-06-15T05:53:00.023Z,152441.33
2019-06-15T05:55:28.491Z,152441.33
2019-06-15T05:57:56.949Z,152438.78
2019-06-15T06:00:25.509Z,152454.14
2019-06-15T06:02:53.951Z,152429.81
2019-06-15T06:05:22.515Z,152433.67
2019-06-15T06:07:51.000Z,152415.69
2019-06-15T06:10:19.517Z,152422.12
2019-06-15T06:12:47.955Z,152408.03
2019-06-15T06:15:17.806Z,152415.69
2019-06-15T06:17:46.312Z,152414.42
2019-06-15T06:20:18.137Z,152410.61
2019-06-15T06:22:46.576Z,152417.00
2019-06-15T06:25:15.157Z,152431.09
2019-06-15T06:27:43.594Z,152428.50
2019-06-15T06:30:12.677Z,152427.23
2019-06-15T06:32:41.136Z,152428.50
2019-06-15T06:35:10.133Z,152420.80
2019-06-15T06:37:38.566Z,152429.81
2019-06-15T06:40:10.323Z,152414.42
2019-06-15T06:42:38.753Z,152413.16
2019-06-15T06:45:09.431Z,152433.67
2019-06-15T06:47:40.231Z,152415.69
2019-06-15T06:50:09.972Z,152428.50
2019-06-15T06:52:38.649Z,152418.27
2019-06-15T06:55:08.154Z,152431.09
2019-06-15T06:57:53.336Z,152425.92
2019-06-15T07:00:15.609Z,152443.91
2019-06-15T07:02:44.132Z,152446.44
2019-06-15T07:05:13.408Z,152459.25
2019-06-15T07:07:41.875Z,152461.80
2019-06-15T07:10:11.360Z,152455.41
2019-06-15T07:12:39.868Z,152461.80
2019-06-15T07:15:08.935Z,152473.30
2019-06-15T07:17:37.374Z,152487.39
2019-06-15T07:20:11.992Z,152512.98
2019-06-15T07:22:40.420Z,152532.14
2019-06-15T07:25:10.001Z,152541.11
2019-06-15T07:27:38.424Z,152562.86
2019-06-15T07:30:10.751Z,152578.22
2019-06-15T07:32:39.647Z,152571.83
2019-06-15T07:35:08.676Z,152579.48
2019-06-15T07:37:37.122Z,152597.38
2019-06-15T07:40:08.252Z,152644.78
2019-06-15T07:42:39.260Z,152739.50
2019-06-15T07:45:08.962Z,152922.63
2019-06-15T07:47:37.459Z,153054.61
2019-06-15T07:50:07.522Z,153168.63
2019-06-15T07:52:35.938Z,153164.77
2019-06-15T07:55:07.395Z,153216.09
2019-06-15T07:57:35.902Z,153300.70
2019-06-15T08:00:06.874Z,153416.09
2019-06-15T08:02:35.314Z,153520.00
2019-06-15T08:05:08.323Z,153584.19
2019-06-15T08:07:36.748Z,153593.14
2019-06-15T08:10:07.200Z,153486.67
2019-06-15T08:12:35.633Z,153463.56
2019-06-15T08:15:05.799Z,153381.50
2019-06-15T08:17:34.236Z,153446.89
2019-06-15T08:20:02.663Z,153473.81
2019-06-15T08:22:31.095Z,153453.30
2019-06-15T08:24:59.568Z,153561.06
2019-06-15T08:27:27.992Z,153600.86
2019-06-15T08:29:56.423Z,153612.41
2019-06-15T08:32:24.954Z,153703.50
2019-06-15T08:34:53.414Z,153697.09
2019-06-15T08:37:21.853Z,153742.03
2019-06-15T08:39:50.255Z,153752.30
2019-06-15T08:42:18.694Z,153784.38
2019-06-15T08:44:47.118Z,153786.92
2019-06-15T08:47:15.539Z,153794.66
2019-06-15T08:49:43.975Z,153802.34
2019-06-15T08:52:12.492Z,153811.33
2019-06-15T08:54:40.913Z,153861.38
2019-06-15T08:57:09.417Z,153872.97
2019-06-15T08:59:37.847Z,153856.25
2019-06-15T09:02:06.265Z,153897.37
2019-06-15T09:04:34.744Z,153961.58
2019-06-15T09:07:03.181Z,153938.48
2019-06-15T09:09:31.674Z,153997.55
2019-06-15T09:12:00.112Z,153971.86
2019-06-15T09:14:28.531Z,154005.22
2019-06-15T09:16:57.228Z,154018.09
2019-06-15T09:19:25.656Z,154048.94
2019-06-15T09:21:54.076Z,154048.94
2019-06-15T09:24:22.512Z,154028.33
2019-06-15T09:26:51.205Z,154041.25
2019-06-15T09:29:19.658Z,154056.66
2019-06-15T09:31:48.097Z,154072.08
2019-06-15T09:34:19.276Z,154020.64
2019-06-15T09:36:46.691Z,154014.23
2019-06-15T09:39:15.105Z,154046.39
2019-06-15T09:41:43.534Z,154056.66
2019-06-15T09:44:11.970Z,154043.78
2019-06-15T09:46:40.452Z,154079.77
2019-06-15T09:49:09.021Z,154086.17
2019-06-15T09:51:37.521Z,154110.61
2019-06-15T09:54:06.030Z,154104.19
2019-06-15T09:56:34.452Z,154092.59
2019-06-15T09:59:02.861Z,154037.33
2019-06-15T10:01:31.326Z,154063.08
2019-06-15T10:03:59.767Z,154088.78
2019-06-15T10:06:28.167Z,154161.95
2019-06-15T10:08:56.603Z,154160.69
2019-06-15T10:11:25.030Z,154172.23
2019-06-15T10:13:53.524Z,154187.66
2019-06-15T10:16:22.017Z,154226.23
2019-06-15T10:18:50.392Z,154177.38
2019-06-15T10:21:18.866Z,154128.56
2019-06-15T10:23:47.297Z,154077.22
2019-06-15T10:26:15.719Z,153961.58
2019-06-15T10:28:44.149Z,153935.89
2019-06-15T10:31:12.643Z,153959.03
2019-06-15T10:33:41.071Z,153961.58
2019-06-15T10:36:09.794Z,153905.13
2019-06-15T10:38:38.399Z,153792.06
2019-06-15T10:41:06.836Z,153757.44
2019-06-15T10:43:35.332Z,153751.03
2019-06-15T10:46:03.761Z,153772.84
2019-06-15T10:48:32.194Z,153816.47
2019-06-15T10:51:00.621Z,153883.25
2019-06-15T10:53:29.049Z,153943.63
2019-06-15T10:55:57.494Z,153905.13
2019-06-15T10:58:25.893Z,153848.56
2019-06-15T11:00:54.355Z,153712.48
2019-06-15T11:03:22.770Z,153588.00
2019-06-15T11:05:54.823Z,153512.28
2019-06-15T11:08:22.701Z,153527.69
2019-06-15T11:10:54.170Z,153573.92
2019-06-15T11:13:22.664Z,153584.19
2019-06-15T11:15:51.156Z,153566.20
2019-06-15T11:18:19.652Z,153593.14
2019-06-15T11:20:48.073Z,153552.13
2019-06-15T11:23:16.500Z,153549.53
2019-06-15T11:25:44.926Z,153602.12
2019-06-15T11:28:13.360Z,153586.73
2019-06-15T11:30:41.811Z,153575.19
2019-06-15T11:33:10.223Z,153585.47
2019-06-15T11:35:38.733Z,153599.59
2019-06-15T11:38:07.141Z,153658.59
2019-06-15T11:40:35.572Z,153679.09
2019-06-15T11:43:03.992Z,153631.66
2019-06-15T11:45:32.469Z,153616.27
2019-06-15T11:48:00.886Z,153620.08
2019-06-15T11:50:29.345Z,153632.94
2019-06-15T11:52:57.766Z,153635.47
2019-06-15T11:55:38.548Z,153702.22
2019-06-15T11:57:56.370Z,153706.03
2019-06-15T12:00:31.625Z,153581.59
2019-06-15T12:02:58.068Z,153495.62
2019-06-15T12:05:26.540Z,153508.47
2019-06-15T12:07:54.914Z,153486.67
2019-06-15T12:10:23.388Z,153450.75
2019-06-15T12:12:51.771Z,153455.89
2019-06-15T12:15:20.189Z,153532.81
2019-06-15T12:17:48.625Z,153545.67
2019-06-15T12:20:17.164Z,153425.09
2019-06-15T12:22:46.814Z,153435.36
2019-06-15T12:25:15.555Z,153400.72
2019-06-15T12:27:43.980Z,153413.56
2019-06-15T12:30:14.113Z,153335.28
2019-06-15T12:32:42.608Z,153222.50
2019-06-15T12:35:11.020Z,153330.16
2019-06-15T12:37:39.448Z,153358.39
2019-06-15T12:40:08.829Z,153332.75
2019-06-15T12:42:37.239Z,153340.42
2019-06-15T12:45:06.228Z,153309.64
2019-06-15T12:47:34.920Z,153264.80
2019-06-15T12:50:04.932Z,153322.48
2019-06-15T12:52:34.255Z,153350.69
2019-06-15T12:55:02.681Z,153403.30
2019-06-15T12:57:31.105Z,153360.94
2019-06-15T12:59:59.527Z,153339.16
2019-06-15T13:02:27.948Z,153348.14
2019-06-15T13:04:56.418Z,153319.91
2019-06-15T13:07:24.810Z,153327.62
2019-06-15T13:09:53.242Z,153337.88
2019-06-15T13:12:21.671Z,153260.94
2019-06-15T13:14:50.093Z,153258.39
2019-06-15T13:17:18.513Z,153240.47
2019-06-15T13:19:46.935Z,153186.59
2019-06-15T13:22:15.353Z,153169.89
2019-06-15T13:24:43.769Z,153245.59
2019-06-15T13:27:12.874Z,153226.34
2019-06-15T13:29:45.115Z,153258.39
2019-06-15T13:32:13.559Z,153275.06
2019-06-15T13:34:41.975Z,153245.59
2019-06-15T13:37:10.437Z,153235.34
2019-06-15T13:39:39.081Z,153263.53
2019-06-15T13:42:07.491Z,153266.06
2019-06-15T13:44:35.928Z,153301.97
2019-06-15T13:47:04.351Z,153358.39
2019-06-15T13:49:33.017Z,153381.50
2019-06-15T13:52:02.557Z,153258.39
2019-06-15T13:54:30.964Z,153304.56
2019-06-15T13:56:59.412Z,153277.64
2019-06-15T13:59:27.888Z,153309.64
2019-06-15T14:01:56.334Z,153334.02
2019-06-15T14:04:24.758Z,153335.28
2019-06-15T14:06:53.207Z,153330.16
2019-06-15T14:09:21.677Z,153294.30
2019-06-15T14:11:50.098Z,153301.97
2019-06-15T14:14:18.593Z,153323.75
2019-06-15T14:16:46.965Z,153317.36
2019-06-15T14:19:15.449Z,153323.75
2019-06-15T14:21:43.870Z,153336.61
2019-06-15T14:24:12.587Z,153307.09
2019-06-15T14:26:41.083Z,153295.56
2019-06-15T14:29:09.523Z,153199.44
2019-06-15T14:31:49.676Z,153200.72
2019-06-15T14:34:08.289Z,153219.95
2019-06-15T14:36:36.722Z,153199.44
2019-06-15T14:39:09.573Z,153155.83
2019-06-15T14:41:37.979Z,153162.22
2019-06-15T14:44:06.413Z,153178.87
2019-06-15T14:46:34.823Z,153168.63
2019-06-15T14:49:03.257Z,153172.48
2019-06-15T14:51:32.112Z,153186.59
2019-06-15T14:54:00.528Z,153184.02
2019-06-15T14:56:28.966Z,153117.41
2019-06-15T14:58:57.393Z,153212.23
2019-06-15T15:01:26.225Z,153204.56
2019-06-15T15:03:57.106Z,153159.64
2019-06-15T15:06:26.084Z,153235.34
2019-06-15T15:08:56.251Z,153260.94
2019-06-15T15:11:26.414Z,153184.02
2019-06-15T15:13:56.209Z,153162.22
2019-06-15T15:16:24.939Z,153130.19
2019-06-15T15:18:53.359Z,153123.80
2019-06-15T15:21:21.777Z,153149.44
2019-06-15T15:23:50.215Z,153093.03
2019-06-15T15:26:18.617Z,153121.22
2019-06-15T15:28:47.461Z,153084.05
2019-06-15T15:31:17.244Z,153075.13
2019-06-15T15:33:47.726Z,153071.27
2019-06-15T15:36:16.885Z,153066.14
2019-06-15T15:38:46.837Z,153053.34
2019-06-15T15:41:17.169Z,153012.28
2019-06-15T15:43:46.396Z,153022.59
2019-06-15T15:46:16.435Z,153040.50
2019-06-15T15:48:47.070Z,152985.39
2019-06-15T15:51:17.263Z,152975.14
2019-06-15T15:53:46.708Z,152971.28
2019-06-15T15:56:17.088Z,152900.86
2019-06-15T15:58:47.231Z,152907.25
2019-06-15T16:01:17.086Z,152909.83
2019-06-15T16:03:47.435Z,152931.59
2019-06-15T16:06:16.087Z,152949.52
2019-06-15T16:08:47.038Z,152961.03
2019-06-15T16:11:16.320Z,152993.05
2019-06-15T16:13:46.089Z,152948.25
2019-06-15T16:16:16.383Z,152955.91
2019-06-15T16:18:47.038Z,152972.59
2019-06-15T16:21:16.869Z,152958.50
2019-06-15T16:23:46.873Z,152945.70
2019-06-15T16:26:16.909Z,152935.45
2019-06-15T16:28:46.216Z,152917.50
2019-06-15T16:31:17.744Z,152827.91
2019-06-15T16:33:46.500Z,152806.05
2019-06-15T16:36:15.446Z,152784.28
2019-06-15T16:38:46.777Z,152760.00
2019-06-15T16:41:14.444Z,152781.75
2019-06-15T16:43:42.930Z,152765.11
2019-06-15T16:46:11.355Z,152745.89
2019-06-15T16:48:39.797Z,152761.25
2019-06-15T16:51:08.218Z,152789.41
2019-06-15T16:53:37.250Z,152815.03
2019-06-15T16:56:06.294Z,152850.94
2019-06-15T16:58:36.319Z,152866.30
2019-06-15T17:01:06.515Z,152848.34
2019-06-15T17:03:36.669Z,152853.47
2019-06-15T17:06:06.954Z,152856.06
2019-06-15T17:08:36.828Z,152864.98
2019-06-15T17:11:06.793Z,152850.94
2019-06-15T17:13:37.013Z,152831.72
2019-06-15T17:16:06.248Z,152847.08
2019-06-15T17:18:36.483Z,152848.34
2019-06-15T17:21:07.030Z,152853.47
2019-06-15T17:23:35.412Z,152838.09
2019-06-15T17:26:06.282Z,152799.66
2019-06-15T17:28:34.021Z,152804.78
2019-06-15T17:31:02.554Z,152772.77
2019-06-15T17:33:37.605Z,152768.97
2019-06-15T17:36:03.287Z,152779.16
2019-06-15T17:38:31.264Z,152771.50
2019-06-15T17:40:59.681Z,152748.47
2019-06-15T17:43:28.108Z,152743.34
2019-06-15T17:45:56.755Z,152730.53
2019-06-15T17:48:25.179Z,152703.64
2019-06-15T17:50:53.599Z,152658.88
2019-06-15T17:53:22.032Z,152621.72
2019-06-15T17:55:50.466Z,152605.08
2019-06-15T17:58:18.880Z,152587.19
2019-06-15T18:00:48.450Z,152571.83
2019-06-15T18:03:17.471Z,152551.34
2019-06-15T18:05:48.217Z,152546.22
2019-06-15T18:08:16.848Z,152538.53
2019-06-15T18:10:47.545Z,152500.16
2019-06-15T18:13:16.911Z,152481.00
2019-06-15T18:15:47.559Z,152461.80
2019-06-15T18:18:16.878Z,152470.77
2019-06-15T18:20:45.729Z,152457.94
2019-06-15T18:23:16.995Z,152433.67
2019-06-15T18:25:46.580Z,152432.41
2019-06-15T18:28:17.135Z,152418.27
2019-06-15T18:30:46.624Z,152400.38
2019-06-15T18:33:16.339Z,152386.30
2019-06-15T18:35:47.069Z,152378.64
2019-06-15T18:38:15.045Z,152368.41
2019-06-15T18:40:43.455Z,152368.41
2019-06-15T18:43:11.885Z,152369.67
2019-06-15T18:45:40.294Z,152374.80
2019-06-15T18:48:08.735Z,152331.33
2019-06-15T18:50:39.961Z,152321.09
2019-06-15T18:53:08.804Z,152324.94
2019-06-15T18:55:37.673Z,152317.25
2019-06-15T18:58:06.543Z,152323.62
2019-06-15T19:00:37.032Z,152317.25
2019-06-15T19:03:06.951Z,152303.16
2019-06-15T19:05:37.304Z,152298.05
2019-06-15T19:08:07.568Z,152277.63
2019-06-15T19:10:37.172Z,152261.02
2019-06-15T19:13:07.678Z,152262.28
2019-06-15T19:15:37.430Z,152252.05
2019-06-15T19:18:07.509Z,152226.48
2019-06-15T19:20:37.246Z,152236.70
2019-06-15T19:23:06.797Z,152237.97
2019-06-15T19:25:36.540Z,152221.36
2019-06-15T19:28:05.403Z,152205.97
2019-06-15T19:30:33.977Z,152209.81
2019-06-15T19:33:02.414Z,152205.97
2019-06-15T19:35:31.260Z,152180.41
2019-06-15T19:37:59.686Z,152166.37
2019-06-15T19:40:28.111Z,152152.30
2019-06-15T19:42:57.102Z,152147.19
2019-06-15T19:45:26.696Z,152116.55
2019-06-15T19:47:55.238Z,152096.09
2019-06-15T19:50:23.681Z,152113.97
2019-06-15T19:52:52.090Z,152101.20
2019-06-15T19:55:20.524Z,152069.27
2019-06-15T19:57:48.960Z,152046.23
2019-06-15T20:00:18.636Z,152050.08
2019-06-15T20:02:48.189Z,152032.20
2019-06-15T20:05:17.709Z,152004.06
2019-06-15T20:07:46.693Z,151995.11
2019-06-15T20:10:15.759Z,151997.64
2019-06-15T20:12:46.452Z,151987.42
2019-06-15T20:15:16.833Z,151975.94
2019-06-15T20:17:46.117Z,151975.94
2019-06-15T20:20:15.475Z,151964.44
2019-06-15T20:22:46.651Z,151959.33
2019-06-15T20:25:16.053Z,151935.09
2019-06-15T20:27:46.700Z,151913.33
2019-06-15T20:30:16.985Z,151890.36
2019-06-15T20:32:46.234Z,151906.95
2019-06-15T20:35:20.569Z,151900.58
2019-06-15T20:37:46.522Z,151848.22
2019-06-15T20:40:16.543Z,151830.34
2019-06-15T20:42:46.162Z,151830.34
2019-06-15T20:45:16.771Z,151839.31
2019-06-15T20:47:47.777Z,151841.84
2019-06-15T20:50:27.273Z,151827.78
2019-06-15T20:52:47.166Z,151825.25
2019-06-15T20:55:16.316Z,151817.61
2019-06-15T20:57:46.083Z,151798.44
2019-06-15T21:00:16.748Z,151785.69
2019-06-15T21:02:45.386Z,151779.27
2019-06-15T21:05:33.019Z,151766.47
2019-06-15T21:07:47.161Z,151763.89
2019-06-15T21:10:16.151Z,151748.61
2019-06-15T21:12:46.905Z,151735.81
2019-06-15T21:15:16.080Z,151702.64
2019-06-15T21:17:46.628Z,151695.00
2019-06-15T21:20:16.335Z,151695.00
2019-06-15T21:22:46.516Z,151677.11
2019-06-15T21:25:17.509Z,151691.16
2019-06-15T21:27:47.479Z,151679.69
2019-06-15T21:30:16.573Z,151675.84
2019-06-15T21:32:46.593Z,151693.69
2019-06-15T21:35:15.298Z,151683.47
2019-06-15T21:37:46.292Z,151680.95
2019-06-15T21:40:18.284Z,151682.22
2019-06-15T21:42:46.886Z,151678.37
2019-06-15T21:45:15.954Z,151669.47
2019-06-15T21:47:46.393Z,151686.06
2019-06-15T21:50:16.079Z,151678.37
2019-06-15T21:52:45.957Z,151672.00
2019-06-15T21:55:16.014Z,151663.09
2019-06-15T21:57:44.761Z,151649.05
2019-06-15T22:00:22.501Z,151649.05
2019-06-15T22:02:51.101Z,151660.52
2019-06-15T22:05:19.573Z,151654.16
2019-06-15T22:07:47.970Z,151654.16
2019-06-15T22:10:16.551Z,151643.94
2019-06-15T22:12:50.610Z,151636.30
2019-06-15T22:15:20.036Z,151626.09
2019-06-15T22:17:48.459Z,151626.09
2019-06-15T22:20:17.036Z,151619.67
2019-06-15T22:22:47.032Z,151601.81
2019-06-15T22:25:16.002Z,151595.45
2019-06-15T22:27:46.703Z,151595.45
2019-06-15T22:30:16.981Z,151586.50
2019-06-15T22:32:47.277Z,151580.13
2019-06-15T22:35:16.456Z,151582.66
2019-06-15T22:37:46.809Z,151581.39
2019-06-15T22:40:16.588Z,151571.19
2019-06-15T22:42:47.068Z,151576.28
2019-06-15T22:45:17.251Z,151544.39
2019-06-15T22:47:46.782Z,151527.77
2019-06-15T22:50:16.119Z,151534.19
2019-06-15T22:52:47.346Z,151536.75
2019-06-15T22:55:16.672Z,151523.92
2019-06-15T22:57:46.151Z,151511.19
2019-06-15T23:00:17.183Z,151518.87
2019-06-15T23:02:46.049Z,151513.77
2019-06-15T23:05:17.152Z,151493.34
2019-06-15T23:07:47.284Z,151489.50
2019-06-15T23:10:16.705Z,151475.45
2019-06-15T23:12:46.487Z,151465.25
2019-06-15T23:15:17.378Z,151430.83
2019-06-15T23:17:46.627Z,151444.88
2019-06-15T23:20:17.125Z,151434.67
2019-06-15T23:22:46.879Z,151376.00
2019-06-15T23:25:16.766Z,151390.00
2019-06-15T23:27:46.885Z,151397.69
2019-06-15T23:30:16.174Z,151398.94
2019-06-15T23:32:46.897Z,151396.42
2019-06-15T23:35:16.768Z,151370.91
2019-06-15T23:37:46.543Z,151340.28
2019-06-15T23:40:30.507Z,151345.39
2019-06-15T23:42:58.936Z,151319.88
2019-06-15T23:45:27.404Z,151327.56
2019-06-15T23:47:57.553Z,151305.88
2019-06-15T23:50:26.586Z,151307.16
2019-06-15T23:52:55.525Z,151296.94
2019-06-15T23:55:26.650Z,151258.66
2019-06-15T23:57:54.165Z,151225.48
